createdAt,value
2023-01-05T00:01:55.226Z,14.38
2023-01-05T00:04:22.651Z,14.38
2023-01-05T00:06:49.587Z,14.37
2023-01-05T00:09:18.621Z,14.37
2023-01-05T00:12:04.302Z,14.35
2023-01-05T00:14:52.194Z,14.32
2023-01-05T00:17:42.150Z,14.29
2023-01-05T00:20:37.573Z,14.27
2023-01-05T00:23:07.465Z,14.24
2023-01-05T00:25:40.028Z,14.27
2023-01-05T00:28:07.601Z,14.27
2023-01-05T00:30:47.360Z,14.30
2023-01-05T00:33:17.495Z,14.30
2023-01-05T00:35:44.336Z,14.29
2023-01-05T00:38:11.814Z,14.31
2023-01-05T00:40:38.664Z,14.33
2023-01-05T00:43:05.674Z,14.34
2023-01-05T00:45:32.520Z,14.35
2023-01-05T00:47:59.358Z,14.37
2023-01-05T00:50:26.525Z,14.37
2023-01-05T00:52:53.235Z,14.38
2023-01-05T00:55:19.986Z,14.40
2023-01-05T00:57:46.771Z,14.40
2023-01-05T01:00:19.008Z,14.40
2023-01-05T01:02:46.510Z,14.37
2023-01-05T01:05:13.779Z,14.37
2023-01-05T01:07:40.619Z,14.38
2023-01-05T01:10:08.982Z,14.37
2023-01-05T01:12:35.816Z,14.39
2023-01-05T01:15:03.459Z,14.42
2023-01-05T01:17:32.091Z,14.43
2023-01-05T01:19:58.828Z,14.46
2023-01-05T01:22:25.823Z,14.44
2023-01-05T01:24:52.658Z,14.45
2023-01-05T01:27:19.987Z,14.46
2023-01-05T01:29:46.709Z,14.46
2023-01-05T01:32:13.442Z,14.46
2023-01-05T01:34:40.213Z,14.46
2023-01-05T01:37:07.010Z,14.47
2023-01-05T01:39:33.914Z,14.47
2023-01-05T01:42:00.609Z,14.48
2023-01-05T01:44:55.862Z,14.46
2023-01-05T01:47:43.804Z,14.44
2023-01-05T01:50:29.910Z,14.45
2023-01-05T01:53:14.992Z,14.45
2023-01-05T01:55:43.786Z,14.46
2023-01-05T01:58:17.235Z,14.48
2023-01-05T02:00:45.248Z,14.51
2023-01-05T02:03:12.661Z,14.53
2023-01-05T02:05:39.621Z,14.55
2023-01-05T02:08:15.045Z,14.59
2023-01-05T02:11:24.597Z,14.58
2023-01-05T02:14:11.532Z,14.58
2023-01-05T02:16:51.796Z,14.59
2023-01-05T02:19:53.967Z,14.61
2023-01-05T02:22:35.430Z,14.58
2023-01-05T02:25:07.635Z,14.58
2023-01-05T02:28:11.911Z,14.61
2023-01-05T02:31:02.702Z,14.57
2023-01-05T02:34:29.998Z,14.52
2023-01-05T02:37:12.887Z,14.47
2023-01-05T02:39:59.896Z,14.46
2023-01-05T02:42:29.916Z,14.48
2023-01-05T02:44:56.653Z,14.49
2023-01-05T02:47:27.523Z,14.53
2023-01-05T02:50:05.886Z,14.56
2023-01-05T02:52:55.340Z,14.57
2023-01-05T02:55:32.923Z,14.58
2023-01-05T02:58:38.101Z,14.60
2023-01-05T03:01:34.279Z,14.62
2023-01-05T03:04:13.409Z,14.61
2023-01-05T03:06:57.906Z,14.62
2023-01-05T03:09:36.888Z,14.64
2023-01-05T03:12:38.508Z,14.65
2023-01-05T03:15:25.053Z,14.65
2023-01-05T03:17:59.688Z,14.66
2023-01-05T03:20:32.927Z,14.68
2023-01-05T03:23:22.552Z,14.69
2023-01-05T03:26:10.340Z,14.67
2023-01-05T03:29:04.836Z,14.67
2023-01-05T03:32:15.548Z,14.65
2023-01-05T03:35:15.139Z,14.65
2023-01-05T03:37:57.603Z,14.62
2023-01-05T03:40:34.648Z,14.65
2023-01-05T03:43:04.417Z,14.66
2023-01-05T03:45:43.247Z,14.68
2023-01-05T03:48:10.036Z,14.69
2023-01-05T03:50:37.137Z,14.70
2023-01-05T03:53:04.667Z,14.70
2023-01-05T03:55:31.437Z,14.73
2023-01-05T03:57:58.177Z,14.74
2023-01-05T04:00:25.554Z,14.76
2023-01-05T04:02:52.892Z,14.76
2023-01-05T04:05:19.734Z,14.76
2023-01-05T04:07:46.642Z,14.75
2023-01-05T04:10:13.397Z,14.77
2023-01-05T04:12:40.106Z,14.79
2023-01-05T04:15:08.948Z,14.78
2023-01-05T04:17:35.689Z,14.80
2023-01-05T04:20:02.449Z,14.80
2023-01-05T04:22:29.153Z,14.80
2023-01-05T04:24:55.869Z,14.80
2023-01-05T04:27:22.576Z,14.81
2023-01-05T04:29:49.298Z,14.79
2023-01-05T04:32:16.037Z,14.81
2023-01-05T04:34:42.728Z,14.80
2023-01-05T04:37:09.503Z,14.80
2023-01-05T04:39:36.216Z,14.82
2023-01-05T04:42:03.099Z,14.81
2023-01-05T04:44:29.872Z,14.82
2023-01-05T04:46:56.663Z,14.82
2023-01-05T04:49:23.857Z,14.82
2023-01-05T04:51:50.589Z,14.81
2023-01-05T04:54:17.546Z,14.81
2023-01-05T04:56:44.293Z,14.82
2023-01-05T04:59:11.029Z,14.83
2023-01-05T05:01:37.865Z,14.84
2023-01-05T05:04:04.868Z,14.85
2023-01-05T05:06:31.611Z,14.84
2023-01-05T05:08:58.314Z,14.84
2023-01-05T05:11:25.398Z,14.84
2023-01-05T05:13:52.185Z,14.85
2023-01-05T05:16:18.989Z,14.83
2023-01-05T05:18:45.776Z,14.85
2023-01-05T05:21:12.500Z,14.85
2023-01-05T05:23:39.221Z,14.87
2023-01-05T05:26:05.975Z,14.87
2023-01-05T05:28:32.743Z,14.86
2023-01-05T05:30:59.582Z,14.87
2023-01-05T05:33:26.443Z,14.87
2023-01-05T05:35:53.246Z,14.86
2023-01-05T05:38:20.310Z,14.87
2023-01-05T05:40:49.365Z,14.87
2023-01-05T05:43:16.815Z,14.85
2023-01-05T05:45:49.951Z,14.84
2023-01-05T05:48:18.663Z,14.83
2023-01-05T05:50:45.861Z,14.81
2023-01-05T05:53:12.871Z,14.81
2023-01-05T05:55:39.714Z,14.81
2023-01-05T05:58:06.549Z,14.78
2023-01-05T06:00:33.313Z,14.77
2023-01-05T06:03:00.220Z,14.74
2023-01-05T06:05:27.050Z,14.72
2023-01-05T06:07:53.752Z,14.71
2023-01-05T06:10:20.488Z,14.71
2023-01-05T06:12:47.384Z,14.70
2023-01-05T06:15:14.406Z,14.67
2023-01-05T06:17:41.301Z,14.67
2023-01-05T06:20:09.631Z,14.67
2023-01-05T06:22:36.490Z,14.66
2023-01-05T06:25:04.163Z,14.64
2023-01-05T06:27:30.892Z,14.61
2023-01-05T06:29:57.634Z,15.00
2023-01-05T06:32:24.411Z,15.00
2023-01-05T06:34:51.136Z,14.85
2023-01-05T06:37:17.832Z,14.77
2023-01-05T06:39:44.734Z,14.71
2023-01-05T06:42:11.603Z,14.69
2023-01-05T06:44:38.327Z,14.65
2023-01-05T06:47:05.218Z,14.62
2023-01-05T06:49:31.972Z,14.58
2023-01-05T06:51:58.849Z,14.55
2023-01-05T06:54:25.568Z,14.51
2023-01-05T06:56:52.258Z,14.48
2023-01-05T06:59:18.998Z,14.46
2023-01-05T07:01:45.846Z,14.43
2023-01-05T07:04:12.735Z,14.42
2023-01-05T07:06:39.514Z,14.41
2023-01-05T07:09:06.327Z,14.39
2023-01-05T07:11:33.122Z,14.38
2023-01-05T07:13:59.905Z,14.37
2023-01-05T07:16:26.937Z,14.36
2023-01-05T07:18:53.781Z,14.33
2023-01-05T07:21:20.621Z,14.33
2023-01-05T07:23:47.379Z,14.33
2023-01-05T07:26:14.169Z,14.30
2023-01-05T07:28:41.045Z,14.30
2023-01-05T07:31:08.050Z,14.30
2023-01-05T07:33:39.663Z,14.29
2023-01-05T07:36:08.028Z,14.29
2023-01-05T07:38:34.977Z,14.30
2023-01-05T07:41:03.482Z,14.28
2023-01-05T07:43:30.495Z,14.29
2023-01-05T07:45:59.462Z,14.29
2023-01-05T07:48:26.590Z,14.29
2023-01-05T07:50:58.979Z,14.30
2023-01-05T07:53:25.677Z,14.32
2023-01-05T07:55:58.687Z,14.31
2023-01-05T07:58:27.392Z,14.31
2023-01-05T08:00:54.702Z,14.31
2023-01-05T08:03:22.238Z,14.30
2023-01-05T08:05:49.024Z,14.29
2023-01-05T08:08:22.239Z,14.31
2023-01-05T08:10:51.043Z,14.29
2023-01-05T08:13:36.478Z,14.31
2023-01-05T08:16:03.395Z,14.31
2023-01-05T08:18:30.189Z,14.32
2023-01-05T08:21:04.430Z,14.33
2023-01-05T08:23:32.802Z,14.35
2023-01-05T08:26:10.631Z,14.36
2023-01-05T08:28:38.484Z,14.36
2023-01-05T08:31:10.635Z,14.38
2023-01-05T08:33:37.704Z,14.39
2023-01-05T08:36:14.312Z,14.41
2023-01-05T08:38:50.239Z,14.42
2023-01-05T08:41:19.929Z,14.45
2023-01-05T08:43:58.063Z,14.47
2023-01-05T08:46:28.446Z,14.46
2023-01-05T08:48:58.227Z,14.48
2023-01-05T08:51:25.238Z,14.49
2023-01-05T08:53:52.359Z,14.51
2023-01-05T08:56:20.276Z,14.53
2023-01-05T08:58:47.183Z,14.55
2023-01-05T09:01:17.956Z,14.58
2023-01-05T09:03:45.530Z,14.62
2023-01-05T09:06:13.369Z,14.66
2023-01-05T09:08:42.865Z,14.70
2023-01-05T09:11:20.563Z,14.73
2023-01-05T09:13:59.828Z,14.75
2023-01-05T09:17:05.322Z,14.78
2023-01-05T09:19:19.352Z,14.81
2023-01-05T09:21:46.289Z,14.85
2023-01-05T09:24:13.207Z,14.91
2023-01-05T09:26:41.914Z,14.93
2023-01-05T09:29:10.490Z,14.99
2023-01-05T09:31:37.420Z,15.03
2023-01-05T09:34:04.355Z,15.08
2023-01-05T09:36:32.221Z,15.14
2023-01-05T09:38:59.183Z,15.19
2023-01-05T09:41:48.858Z,15.23
2023-01-05T09:44:37.683Z,15.28
2023-01-05T09:47:36.683Z,15.28
2023-01-05T09:50:08.424Z,15.31
2023-01-05T09:52:38.231Z,15.36
2023-01-05T09:55:18.555Z,15.40
2023-01-05T09:58:14.053Z,15.42
2023-01-05T10:00:45.648Z,15.47
2023-01-05T10:04:02.007Z,15.58
2023-01-05T10:06:15.412Z,15.76
2023-01-05T10:08:50.727Z,15.95
2023-01-05T10:12:08.306Z,16.21
2023-01-05T10:14:47.695Z,16.53
2023-01-05T10:20:40.042Z,17.14
2023-01-05T10:23:51.187Z,17.36
2023-01-05T10:27:22.695Z,17.61
2023-01-05T10:29:45.418Z,17.88
2023-01-05T10:32:30.388Z,18.10
2023-01-05T10:35:50.835Z,18.18
2023-01-05T10:38:37.636Z,18.22
2023-01-05T10:41:19.139Z,18.23
2023-01-05T10:44:06.645Z,18.29
2023-01-05T10:46:41.896Z,18.49
2023-01-05T10:49:24.112Z,18.76
2023-01-05T10:51:56.504Z,18.99
2023-01-05T10:54:40.177Z,19.15
2023-01-05T10:57:34.242Z,19.26
2023-01-05T11:00:05.417Z,19.40
2023-01-05T11:02:50.241Z,19.53
2023-01-05T11:05:35.980Z,19.81
2023-01-05T11:08:12.566Z,20.12
2023-01-05T11:10:50.968Z,20.48
2023-01-05T11:13:33.190Z,20.84
2023-01-05T11:16:18.074Z,21.10
2023-01-05T11:19:07.881Z,21.17
2023-01-05T11:21:45.320Z,21.14
2023-01-05T11:24:24.332Z,21.12
2023-01-05T11:26:55.356Z,21.23
2023-01-05T11:29:22.697Z,21.44
2023-01-05T11:31:54.679Z,21.61
2023-01-05T11:34:32.976Z,21.66
2023-01-05T11:37:09.670Z,21.62
2023-01-05T11:39:47.093Z,21.55
2023-01-05T11:42:25.695Z,21.42
2023-01-05T11:45:06.321Z,21.29
2023-01-05T11:47:44.182Z,21.16
2023-01-05T11:50:14.411Z,20.99
2023-01-05T11:53:00.743Z,20.80
2023-01-05T11:55:39.905Z,20.57
2023-01-05T11:58:22.548Z,20.35
2023-01-05T12:01:11.484Z,20.14
2023-01-05T12:03:44.087Z,19.96
2023-01-05T12:06:58.214Z,19.79
2023-01-05T12:09:44.572Z,19.52
2023-01-05T12:12:33.594Z,19.39
2023-01-05T12:15:30.950Z,19.28
2023-01-05T12:18:24.628Z,19.14
2023-01-05T12:21:05.433Z,19.05
2023-01-05T12:24:10.830Z,18.97
2023-01-05T12:27:13.923Z,18.93
2023-01-05T12:37:05.275Z,18.67
2023-01-05T12:39:56.156Z,18.56
2023-01-05T12:42:57.744Z,18.48
2023-01-05T12:45:52.154Z,18.37
2023-01-05T12:48:48.400Z,18.31
2023-01-05T12:51:24.918Z,18.30
2023-01-05T12:54:04.438Z,18.25
2023-01-05T12:56:49.553Z,18.18
2023-01-05T12:59:37.754Z,18.12
2023-01-05T13:02:28.166Z,18.08
2023-01-05T13:05:08.766Z,18.02
2023-01-05T13:08:00.422Z,17.96
2023-01-05T13:10:33.337Z,17.91
2023-01-05T13:13:10.982Z,17.88
2023-01-05T13:16:00.315Z,17.82
2023-01-05T13:18:27.676Z,17.80
2023-01-05T13:20:59.246Z,17.78
2023-01-05T13:23:36.226Z,17.74
2023-01-05T13:26:21.946Z,17.71
2023-01-05T13:28:55.393Z,17.68
2023-01-05T13:31:52.774Z,17.66
2023-01-05T13:34:43.489Z,17.65
2023-01-05T13:37:41.404Z,17.64
2023-01-05T13:40:31.459Z,17.66
2023-01-05T13:43:39.943Z,17.69
2023-01-05T13:46:27.777Z,17.72
2023-01-05T13:49:24.474Z,17.71
2023-01-05T13:51:58.129Z,17.74
2023-01-05T13:54:49.557Z,17.78
2023-01-05T13:57:29.072Z,17.81
2023-01-05T14:00:35.737Z,17.79
2023-01-05T14:03:26.959Z,17.80
2023-01-05T14:06:27.008Z,17.81
2023-01-05T14:09:07.498Z,17.79
2023-01-05T14:11:36.229Z,17.79
2023-01-05T14:14:27.292Z,17.73
2023-01-05T14:16:55.849Z,17.68
2023-01-05T14:19:33.353Z,17.63
2023-01-05T14:22:19.508Z,17.56
2023-01-05T14:24:49.438Z,17.53
2023-01-05T14:27:22.981Z,17.51
2023-01-05T14:32:34.175Z,17.49
2023-01-05T14:35:06.638Z,17.46
2023-01-05T14:37:40.419Z,17.42
2023-01-05T14:40:37.936Z,17.35
2023-01-05T14:43:23.730Z,17.29
2023-01-05T14:46:16.764Z,17.19
2023-01-05T14:49:07.496Z,17.11
2023-01-05T14:51:37.723Z,17.03
2023-01-05T14:54:06.047Z,16.96
2023-01-05T14:56:36.554Z,16.92
2023-01-05T14:59:13.524Z,16.85
2023-01-05T15:01:54.409Z,16.78
2023-01-05T15:04:32.163Z,16.72
2023-01-05T15:07:36.768Z,16.66
2023-01-05T15:10:48.949Z,16.57
2023-01-05T15:14:12.491Z,16.47
2023-01-05T15:17:16.517Z,16.38
2023-01-05T15:20:13.495Z,16.30
2023-01-05T15:23:11.549Z,16.23
2023-01-05T15:26:08.471Z,16.16
2023-01-05T15:29:38.399Z,16.07
2023-01-05T15:32:21.057Z,15.98
2023-01-05T15:35:00.573Z,15.93
2023-01-05T15:37:36.895Z,15.85
2023-01-05T15:40:22.911Z,15.76
2023-01-05T15:43:01.659Z,15.72
2023-01-05T15:45:33.861Z,15.66
2023-01-05T15:48:13.971Z,15.61
2023-01-05T15:50:51.399Z,15.56
2023-01-05T15:53:38.424Z,15.47
2023-01-05T15:56:23.065Z,15.43
2023-01-05T15:58:49.770Z,15.39
2023-01-05T16:01:17.108Z,15.37
2023-01-05T16:03:46.791Z,15.32
2023-01-05T16:06:27.926Z,15.29
2023-01-05T16:09:06.711Z,15.56
2023-01-05T16:11:42.502Z,15.44
2023-01-05T16:14:34.449Z,15.31
2023-01-05T16:17:22.073Z,15.18
2023-01-05T16:20:03.348Z,15.14
2023-01-05T16:23:00.936Z,15.10
2023-01-05T16:25:34.785Z,15.06
2023-01-05T16:28:04.914Z,15.06
2023-01-05T16:30:38.225Z,15.04
2023-01-05T16:33:11.904Z,15.02
2023-01-05T16:35:51.057Z,15.00
2023-01-05T16:38:26.910Z,14.97
2023-01-05T16:41:05.531Z,14.97
2023-01-05T16:43:42.583Z,14.94
2023-01-05T16:46:20.482Z,14.94
2023-01-05T16:49:03.670Z,14.94
2023-01-05T16:51:33.780Z,14.91
2023-01-05T16:54:44.209Z,14.90
2023-01-05T16:57:43.185Z,14.86
2023-01-05T17:00:42.511Z,14.86
2023-01-05T17:03:32.486Z,14.83
2023-01-05T17:06:01.155Z,14.86
2023-01-05T17:08:31.748Z,14.87
2023-01-05T17:11:02.960Z,14.90
2023-01-05T17:13:40.135Z,14.90
2023-01-05T17:16:10.419Z,14.92
2023-01-05T17:18:37.340Z,14.91
2023-01-05T17:21:06.519Z,14.90
2023-01-05T17:23:47.589Z,14.89
2023-01-05T17:26:26.673Z,14.92
2023-01-05T17:31:27.977Z,14.94
2023-01-05T17:33:54.851Z,14.94
2023-01-05T17:36:34.359Z,14.93
2023-01-05T17:39:02.144Z,14.94
2023-01-05T17:41:29.031Z,14.97
2023-01-05T17:43:55.868Z,14.97
2023-01-05T17:46:30.142Z,14.99
2023-01-05T17:49:00.453Z,14.99
2023-01-05T17:51:30.757Z,14.97
2023-01-05T17:54:00.596Z,15.00
2023-01-05T17:56:27.412Z,14.99
2023-01-05T17:58:54.164Z,15.06
2023-01-05T18:01:21.219Z,15.06
2023-01-05T18:06:15.272Z,15.08
2023-01-05T18:11:09.675Z,15.09
2023-01-05T18:13:36.468Z,15.11
2023-01-05T18:16:11.920Z,15.14
2023-01-05T18:18:38.937Z,15.15
2023-01-05T18:21:06.789Z,15.13
2023-01-05T18:23:34.185Z,15.14
2023-01-05T18:26:09.536Z,15.17
2023-01-05T18:28:37.635Z,15.19
2023-01-05T18:31:16.030Z,15.22
2023-01-05T18:33:43.361Z,15.25
2023-01-05T18:36:14.317Z,15.30
2023-01-05T18:38:41.620Z,15.30
2023-01-05T18:41:08.608Z,15.31
2023-01-05T18:43:36.130Z,15.32
2023-01-05T18:46:04.253Z,15.31
2023-01-05T18:48:31.254Z,15.32
2023-01-05T18:50:58.185Z,15.33
2023-01-05T18:53:25.395Z,15.33
2023-01-05T18:55:52.307Z,15.30
2023-01-05T18:58:19.062Z,15.31
2023-01-05T19:00:46.783Z,15.32
2023-01-05T19:03:13.740Z,15.33
2023-01-05T19:05:43.123Z,15.33
2023-01-05T19:08:12.268Z,15.34
2023-01-05T19:10:39.441Z,15.35
2023-01-05T19:13:06.872Z,15.37
2023-01-05T19:15:36.075Z,15.37
2023-01-05T19:18:03.314Z,15.36
2023-01-05T19:20:31.589Z,15.38
2023-01-05T19:23:00.144Z,15.37
2023-01-05T19:25:27.430Z,15.39
2023-01-05T19:27:54.226Z,15.40
2023-01-05T19:30:23.399Z,15.39
2023-01-05T19:32:51.119Z,15.42
2023-01-05T19:35:18.339Z,15.40
2023-01-05T19:37:47.117Z,15.40
2023-01-05T19:40:19.199Z,15.38
2023-01-05T19:42:51.193Z,15.38
2023-01-05T19:45:17.945Z,15.39
2023-01-05T19:47:44.736Z,15.41
2023-01-05T19:50:12.568Z,15.42
2023-01-05T19:52:40.086Z,15.42
2023-01-05T19:55:07.562Z,15.42
2023-01-05T19:57:34.452Z,15.40
2023-01-05T20:00:05.532Z,15.39
2023-01-05T20:02:32.622Z,15.36
2023-01-05T20:04:59.801Z,15.35
2023-01-05T20:07:26.914Z,15.33
2023-01-05T20:09:53.928Z,15.30
2023-01-05T20:12:21.664Z,15.32
2023-01-05T20:14:48.444Z,15.32
2023-01-05T20:17:15.295Z,15.31
2023-01-05T20:19:42.265Z,15.35
2023-01-05T20:22:13.941Z,15.35
2023-01-05T20:24:42.880Z,15.35
2023-01-05T20:27:14.806Z,15.35
2023-01-05T20:29:41.753Z,15.37
2023-01-05T20:32:20.145Z,15.38
2023-01-05T20:35:00.221Z,15.35
2023-01-05T20:37:29.660Z,15.37
2023-01-05T20:40:02.235Z,15.39
2023-01-05T20:42:30.429Z,15.41
2023-01-05T20:44:57.541Z,15.45
2023-01-05T20:47:24.280Z,15.43
2023-01-05T20:49:51.494Z,15.45
2023-01-05T20:52:21.058Z,15.46
2023-01-05T20:54:52.451Z,15.46
2023-01-05T20:57:19.397Z,15.46
2023-01-05T20:59:46.441Z,15.45
2023-01-05T21:02:23.532Z,15.45
2023-01-05T21:04:53.008Z,15.44
2023-01-05T21:07:23.737Z,15.43
2023-01-05T21:09:53.562Z,15.41
2023-01-05T21:12:21.582Z,15.41
2023-01-05T21:14:48.399Z,15.37
2023-01-05T21:17:15.284Z,15.40
2023-01-05T21:19:42.003Z,15.38
2023-01-05T21:22:09.096Z,15.36
2023-01-05T21:24:36.868Z,15.36
2023-01-05T21:27:03.835Z,15.35
2023-01-05T21:29:30.662Z,15.36
2023-01-05T21:31:57.401Z,15.36
2023-01-05T21:34:25.177Z,15.35
2023-01-05T21:36:52.602Z,15.34
2023-01-05T21:39:23.376Z,15.36
2023-01-05T21:42:10.815Z,15.34
2023-01-05T21:44:39.195Z,15.31
2023-01-05T21:47:07.325Z,15.33
2023-01-05T21:49:35.921Z,15.35
2023-01-05T21:52:22.341Z,15.35
2023-01-05T21:55:08.102Z,15.35
2023-01-05T21:57:34.883Z,15.32
2023-01-05T22:00:01.793Z,15.34
2023-01-05T22:02:28.503Z,15.33
2023-01-05T22:04:55.217Z,15.32
2023-01-05T22:07:22.069Z,15.34
2023-01-05T22:09:48.827Z,15.33
2023-01-05T22:12:15.564Z,15.33
2023-01-05T22:14:42.276Z,15.34
2023-01-05T22:17:09.842Z,15.38
2023-01-05T22:19:37.016Z,15.36
2023-01-05T22:22:04.879Z,15.38
2023-01-05T22:24:31.684Z,15.38
2023-01-05T22:26:58.493Z,15.39
2023-01-05T22:29:25.226Z,15.37
2023-01-05T22:31:52.067Z,15.35
2023-01-05T22:34:19.245Z,15.34
2023-01-05T22:36:46.050Z,15.32
2023-01-05T22:39:13.276Z,15.33
2023-01-05T22:41:40.651Z,15.30
2023-01-05T22:44:08.048Z,15.29
2023-01-05T22:46:34.913Z,15.28
2023-01-05T22:49:02.112Z,15.26
2023-01-05T22:51:36.095Z,15.24
2023-01-05T22:54:04.317Z,15.22
2023-01-05T22:56:33.446Z,15.17
2023-01-05T22:59:01.817Z,15.16
2023-01-05T23:01:35.749Z,15.14
2023-01-05T23:04:05.389Z,15.13
2023-01-05T23:06:32.958Z,15.07
2023-01-05T23:09:00.446Z,15.05
2023-01-05T23:11:33.960Z,15.05
2023-01-05T23:14:04.053Z,15.04
2023-01-05T23:16:33.220Z,15.05
2023-01-05T23:19:00.365Z,15.02
2023-01-05T23:21:27.518Z,15.01
2023-01-05T23:23:56.561Z,15.01
2023-01-05T23:26:25.776Z,14.98
2023-01-05T23:28:53.493Z,14.97
2023-01-05T23:31:20.224Z,14.95
2023-01-05T23:33:48.183Z,14.94
2023-01-05T23:36:18.010Z,14.92
2023-01-05T23:38:45.436Z,14.89
2023-01-05T23:41:14.399Z,14.85
2023-01-05T23:43:45.015Z,14.86
2023-01-05T23:46:20.086Z,14.83
2023-01-05T23:48:49.008Z,14.81
2023-01-05T23:51:16.939Z,14.80
2023-01-05T23:53:48.879Z,14.78
2023-01-05T23:56:25.573Z,14.77
2023-01-05T23:58:59.634Z,14.74
